Time;durP1;ratioP1;P1;durP2;ratioP2;P2;SDS_P1;SDS_P2;PMS_P1;PMS_P2;Temp;Humidity;BMP_temperature;BMP_pressure;BME280_temperature;BME280_humidity;BME280_pressure;Samples;Min_cycle;Max_cycle;Signal;HPM_P1;HPM_P2
2023/03/10 00:01:30;;;;;;;;;40.13;32.13;;;;;7.63;78.13;98417.34;6328231;20;3636715;-48
2023/03/10 00:04:02;;;;;;;;;44.67;35.00;;;;;7.58;78.58;98416.81;6315294;20;3610693;-46
2023/03/10 00:06:35;;;;;;;;;24.00;23.00;;;;;7.54;78.45;98416.19;6281050;20;2849207;-47
2023/03/10 00:09:04;;;;;;;;;26.50;23.50;;;;;7.50;78.31;98414.69;6280647;20;2843052;-48
2023/03/10 00:11:31;;;;;;;;;24.50;22.50;;;;;7.42;78.68;98409.03;6275883;20;2500360;-46
2023/03/10 00:14:00;;;;;;;;;26.50;23.00;;;;;7.26;79.52;98410.06;6279038;20;2839956;-46
2023/03/10 00:16:30;;;;;;;;;29.33;27.00;;;;;7.22;79.77;98408.59;6280629;20;2852526;-47
2023/03/10 00:18:59;;;;;;;;;37.33;29.00;;;;;7.13;80.03;98424.38;6309253;20;3612811;-47
2023/03/10 00:21:31;;;;;;;;;34.33;29.33;;;;;7.13;80.68;98411.03;6312427;20;3606526;-46
2023/03/10 00:24:00;;;;;;;;;28.50;22.00;;;;;6.91;82.30;98414.31;6279723;20;2851325;-46
2023/03/10 00:26:28;;;;;;;;;20.00;17.50;;;;;6.76;83.15;98419.69;6277912;20;2500305;-47
2023/03/10 00:28:57;;;;;;;;;22.00;22.00;;;;;6.67;83.64;98414.97;6276890;20;2848285;-44
2023/03/10 00:31:30;;;;;;;;;24.50;19.50;;;;;6.67;83.86;98414.97;6279539;20;2826332;-44
2023/03/10 00:33:59;;;;;;;;;24.00;19.00;;;;;6.49;84.04;98405.53;6279052;20;2841962;-45
2023/03/10 00:36:29;;;;;;;;;27.50;24.00;;;;;6.44;83.93;98395.16;6276056;20;2500407;-49
2023/03/10 00:39:01;;;;;;;;;41.00;36.00;;;;;6.38;83.97;98395.56;6280533;20;2856544;-46
2023/03/10 00:41:35;;;;;;;;;32.67;26.00;;;;;6.38;83.98;98395.56;6310578;20;3610672;-48
2023/03/10 00:44:08;;;;;;;;;27.00;25.50;;;;;6.17;84.87;98395.13;6280762;20;2846204;-48
2023/03/10 00:46:37;;;;;;;;;34.00;27.00;;;;;5.58;87.29;98381.97;6280770;20;2879507;-47
2023/03/10 00:49:11;;;;;;;;;26.00;26.00;;;;;5.48;88.47;98383.50;6309814;20;2841104;-48
2023/03/10 00:51:39;;;;;;;;;30.00;25.00;;;;;5.50;88.63;98377.13;6277029;20;2839904;-46
2023/03/10 00:54:09;;;;;;;;;31.00;29.00;;;;;5.69;88.58;98373.31;6282543;20;2848599;-48
2023/03/10 00:56:38;;;;;;;;;29.00;23.50;;;;;5.81;88.24;98367.19;6284877;20;2849240;-45
2023/03/10 00:59:06;;;;;;;;;19.00;18.50;;;;;5.82;88.09;98371.59;6282413;20;2500312;-48
2023/03/10 01:01:40;;;;;;;;;23.67;21.67;;;;;6.07;87.67;98372.69;6284003;20;3576747;-46
2023/03/10 01:04:17;;;;;;;;;17.67;16.33;;;;;6.27;87.06;98366.94;6284891;20;3549280;-47
2023/03/10 01:06:46;;;;;;;;;21.00;18.00;;;;;6.30;86.20;98377.41;6284713;20;3564956;-49
2023/03/10 01:09:15;;;;;;;;;20.00;16.00;;;;;6.30;86.41;98374.72;6283983;20;2817140;-51
2023/03/10 01:11:44;;;;;;;;;16.33;15.67;;;;;6.46;85.62;98373.72;6283988;20;3537780;-46
2023/03/10 01:14:15;;;;;;;;;32.00;27.00;;;;;6.05;86.09;98366.59;6282611;20;2847184;-46
2023/03/10 01:16:44;;;;;;;;;40.67;33.33;;;;;5.72;87.83;98373.13;6284649;20;3624258;-47
2023/03/10 01:19:13;;;;;;;;;41.33;33.67;;;;;5.65;88.59;98366.44;6316314;20;3601929;-47
2023/03/10 01:21:42;;;;;;;;;38.50;34.00;;;;;5.78;87.90;98370.03;6279121;20;2858742;-46
2023/03/10 01:24:15;;;;;;;;;29.50;28.50;;;;;5.63;88.56;98363.03;6283257;20;2849272;-47
2023/03/10 01:26:44;;;;;;;;;44.00;35.50;;;;;5.62;89.27;98362.16;6284205;20;2857631;-47
2023/03/10 01:29:13;;;;;;;;;38.67;32.00;;;;;5.65;89.94;98361.13;6284279;20;3607718;-48
2023/03/10 01:31:42;;;;;;;;;46.00;37.00;;;;;5.69;89.11;98352.00;6311982;20;2868654;-46
2023/03/10 01:34:12;;;;;;;;;48.33;39.33;;;;;5.68;88.72;98343.13;6313688;20;2867856;-47
2023/03/10 01:36:41;;;;;;;;;51.50;41.50;;;;;5.47;90.05;98331.19;6315431;20;2856528;-45
2023/03/10 01:39:10;;;;;;;;;56.50;44.50;;;;;5.41;90.15;98327.09;6285226;20;2852336;-47
2023/03/10 01:41:40;;;;;;;;;59.50;46.00;;;;;5.53;90.33;98329.94;6282599;20;2872164;-45
2023/03/10 01:44:18;;;;;;;;;49.00;41.00;;;;;5.80;88.95;98327.34;6284370;20;2870227;-47
2023/03/10 01:46:52;;;;;;;;;50.50;42.50;;;;;5.60;89.37;98316.16;6315577;20;2852358;-46
2023/03/10 01:49:33;;;;;;;;;51.00;40.67;;;;;5.52;89.91;98325.56;6282756;20;2848160;-48
2023/03/10 01:52:19;;;;;;;;;52.00;40.33;;;;;5.19;91.42;98321.41;6314835;20;2873450;-47
2023/03/10 01:55:14;;;;;;;;;46.50;39.00;;;;;5.21;90.66;98322.16;6311063;20;2870094;-47
2023/03/10 01:57:53;;;;;;;;;42.00;38.00;;;;;5.00;90.72;98317.22;6281207;20;2844084;-45
2023/03/10 02:00:25;;;;;;;;;52.00;42.00;;;;;4.97;91.89;98322.69;6281709;20;2845220;-46
2023/03/10 02:03:18;;;;;;;;;53.67;41.00;;;;;4.99;91.19;98312.84;6282036;20;2876438;-45
2023/03/10 02:06:13;;;;;;;;;53.50;41.50;;;;;4.79;92.18;98315.84;6312103;20;2853407;-46
2023/03/10 02:08:49;;;;;;;;;58.00;44.50;;;;;4.94;91.80;98311.41;6280476;20;2497175;-47
2023/03/10 02:11:20;;;;;;;;;51.00;43.00;;;;;5.00;91.72;98311.91;6278459;20;2874359;-48
2023/03/10 02:13:50;;;;;;;;;54.67;40.33;;;;;5.09;91.75;98309.63;6280795;20;2871214;-47
2023/03/10 02:16:21;;;;;;;;;48.00;38.33;;;;;4.87;91.51;98302.97;6314400;20;3629461;-48
2023/03/10 02:18:50;;;;;;;;;43.33;37.67;;;;;4.81;92.11;98300.66;6307618;20;2875400;-47
2023/03/10 02:21:43;;;;;;;;;49.33;40.00;;;;;4.72;91.62;98295.91;6311406;20;2866113;-45
2023/03/10 02:24:26;;;;;;;;;47.50;39.00;;;;;4.59;92.86;98290.47;6310962;20;2862805;-46
2023/03/10 02:27:43;;;;;;;;;53.00;44.00;;;;;4.47;92.44;98291.19;6282741;20;2498246;-45
2023/03/10 02:30:20;;;;;;;;;57.00;42.00;;;;;4.35;93.15;98285.66;6278629;20;2878555;-45
2023/03/10 02:32:58;;;;;;;;;51.00;40.00;;;;;4.21;93.05;98287.41;6315004;20;3620099;-45
2023/03/10 02:35:27;;;;;;;;;43.00;39.00;;;;;4.11;93.13;98279.13;6310050;20;2863829;-46
2023/03/10 02:37:57;;;;;;;;;36.00;33.67;;;;;3.98;93.71;98284.28;6313947;20;2861842;-45
2023/03/10 02:40:43;;;;;;;;;34.50;31.00;;;;;4.17;93.15;98274.28;6312777;20;2863921;-45
2023/03/10 02:43:31;;;;;;;;;41.00;34.67;;;;;3.95;93.40;98268.53;6282743;20;2859718;-45
2023/03/10 02:46:04;;;;;;;;;35.00;29.50;;;;;4.04;93.63;98267.13;6311503;20;2841950;-48
2023/03/10 02:48:38;;;;;;;;;41.00;33.00;;;;;3.97;94.44;98266.63;6277770;20;2866500;-45
2023/03/10 02:51:24;;;;;;;;;91.00;73.00;;;;;3.96;93.71;98265.78;6310169;20;2786763;-46
2023/03/10 02:53:53;;;;;;;;;78.67;60.00;;;;;4.07;94.87;98267.81;6277782;20;3640967;-46
2023/03/10 02:56:23;;;;;;;;;69.67;55.33;;;;;4.01;95.26;98268.16;6313994;20;2874350;-46
2023/03/10 02:58:52;;;;;;;;;69.00;54.50;;;;;4.06;94.67;98262.59;6312756;20;2858712;-46
2023/03/10 03:01:21;;;;;;;;;65.50;53.00;;;;;4.00;94.85;98255.81;6278261;20;2862772;-48
2023/03/10 03:03:50;;;;;;;;;68.50;52.50;;;;;3.96;94.73;98259.63;6280468;20;2872180;-48
2023/03/10 03:06:17;;;;;;;;;57.00;46.50;;;;;3.94;95.28;98262.34;6279929;20;2499355;-48
2023/03/10 03:08:46;;;;;;;;;56.50;46.50;;;;;4.19;96.00;98258.28;6282525;20;2847172;-46
2023/03/10 03:11:16;;;;;;;;;45.50;41.00;;;;;4.31;95.44;98256.69;6276830;20;2856663;-50
2023/03/10 03:13:45;;;;;;;;;54.50;45.00;;;;;4.15;95.55;98254.94;6277668;20;2863876;-50
2023/03/10 03:16:14;;;;;;;;;55.50;44.50;;;;;4.46;95.31;98250.47;6273164;20;2850454;-48
2023/03/10 03:18:44;;;;;;;;;44.00;38.00;;;;;4.58;94.75;98247.09;6276188;20;3617957;-47
2023/03/10 03:21:16;;;;;;;;;38.50;35.00;;;;;4.46;95.10;98246.97;6304902;20;2854436;-46
2023/03/10 03:23:46;;;;;;;;;39.50;36.00;;;;;4.20;95.82;98240.53;6278129;20;2849267;-47
2023/03/10 03:26:21;;;;;;;;;44.33;36.00;;;;;4.35;96.03;98229.84;6279839;20;2861728;-48
2023/03/10 03:28:51;;;;;;;;;33.00;30.00;;;;;4.17;96.77;98229.13;6311587;20;2855545;-46
2023/03/10 03:31:24;;;;;;;;;37.33;34.00;;;;;4.22;96.97;98228.03;6307740;20;3615944;-47
2023/03/10 03:33:53;;;;;;;;;35.00;31.50;;;;;4.23;97.18;98219.94;6312211;20;2852388;-45
2023/03/10 03:36:21;;;;;;;;;35.50;31.00;;;;;4.11;97.80;98220.69;6282544;20;2858595;-48
2023/03/10 03:38:50;;;;;;;;;31.00;29.50;;;;;4.10;98.37;98208.34;6283251;20;2846116;-47
2023/03/10 03:41:19;;;;;;;;;34.00;27.50;;;;;4.17;98.02;98207.03;6279678;20;2856564;-46
2023/03/10 03:43:48;;;;;;;;;31.00;28.00;;;;;4.23;97.25;98204.00;6281692;20;2847249;-46
2023/03/10 03:46:17;;;;;;;;;40.00;31.33;;;;;4.15;97.20;98207.13;6278835;20;3616020;-46
2023/03/10 03:48:47;;;;;;;;;31.33;30.33;;;;;4.06;98.41;98201.53;6312459;20;2861745;-48
2023/03/10 03:51:16;;;;;;;;;36.33;34.00;;;;;4.30;98.05;98207.16;6310641;20;2855500;-47
2023/03/10 03:53:45;;;;;;;;;42.67;32.67;;;;;4.15;98.29;98201.81;6310929;20;3610694;-46
2023/03/10 03:56:14;;;;;;;;;40.00;36.00;;;;;3.99;97.41;98208.97;6310205;20;2852386;-50
2023/03/10 03:58:43;;;;;;;;;43.00;36.00;;;;;3.68;97.13;98199.28;6280991;20;2860816;-48
2023/03/10 04:01:11;;;;;;;;;24.50;22.50;;;;;3.37;97.60;98186.91;6275212;20;2500291;-45
2023/03/10 04:03:40;;;;;;;;;34.50;32.00;;;;;3.15;96.89;98190.75;6280795;20;2856584;-47
2023/03/10 04:06:09;;;;;;;;;36.50;29.50;;;;;3.16;96.84;98184.53;6279948;20;2855500;-46
2023/03/10 04:08:38;;;;;;;;;40.00;30.67;;;;;3.39;97.52;98177.91;6280789;20;2863897;-48
2023/03/10 04:11:08;;;;;;;;;40.67;36.67;;;;;3.50;98.13;98177.28;6306551;20;2869142;-53
2023/03/10 04:13:37;;;;;;;;;38.50;34.50;;;;;3.67;98.70;98165.72;6312498;20;2854496;-47
2023/03/10 04:16:06;;;;;;;;;43.50;39.50;;;;;3.64;98.54;98168.56;6280255;20;2861838;-46
2023/03/10 04:18:36;;;;;;;;;40.50;33.00;;;;;3.49;99.21;98162.34;6278604;20;2868028;-48
2023/03/10 04:21:05;;;;;;;;;45.00;39.50;;;;;3.48;99.48;98164.13;6278138;20;2859659;-47
2023/03/10 04:23:33;;;;;;;;;37.50;35.50;;;;;3.72;99.22;98156.56;6281120;20;2847218;-46
2023/03/10 04:26:08;;;;;;;;;43.00;34.00;;;;;3.92;99.97;98155.41;6278445;20;2887923;-46
2023/03/10 04:28:37;;;;;;;;;39.50;36.00;;;;;3.88;99.52;98153.00;6314649;20;2838862;-46
2023/03/10 04:31:15;;;;;;;;;37.50;30.00;;;;;4.05;99.04;98152.84;6284363;20;2858666;-47
2023/03/10 04:33:45;;;;;;;;;42.00;37.50;;;;;4.06;99.89;98151.06;6284329;20;2858715;-50
2023/03/10 04:36:14;;;;;;;;;36.00;32.00;;;;;3.99;100.00;98142.59;6286115;20;2845612;-50
2023/03/10 04:38:44;;;;;;;;;33.00;33.00;;;;;4.04;100.00;98144.97;6284454;20;2852369;-47
2023/03/10 04:41:13;;;;;;;;;34.50;31.00;;;;;3.91;100.00;98145.69;6284336;20;2860699;-49
2023/03/10 04:43:43;;;;;;;;;32.00;30.67;;;;;4.04;100.00;98139.66;6280760;20;2855527;-45
2023/03/10 04:46:15;;;;;;;;;35.00;32.50;;;;;4.12;100.00;98140.91;6317958;20;2860686;-45
2023/03/10 04:48:45;;;;;;;;;33.50;30.00;;;;;4.23;100.00;98134.09;6286101;20;2854481;-45
2023/03/10 04:51:13;;;;;;;;;35.50;29.50;;;;;4.18;100.00;98127.25;6285322;20;2854471;-49
2023/03/10 04:53:42;;;;;;;;;40.00;36.00;;;;;4.10;100.00;98116.25;6284770;20;2850446;-46
2023/03/10 04:56:14;;;;;;;;;44.67;35.67;;;;;4.08;100.00;98104.88;6285621;20;3617962;-46
2023/03/10 04:58:43;;;;;;;;;41.00;27.50;;;;;3.91;100.00;98103.22;6313238;20;2866948;-46
2023/03/10 05:01:15;;;;;;;;;43.00;35.00;;;;;3.73;100.00;98104.31;6281762;20;3611713;-47
2023/03/10 05:03:44;;;;;;;;;50.00;40.00;;;;;3.64;100.00;98108.38;6312869;20;2871303;-45
2023/03/10 05:06:22;;;;;;;;;44.00;37.00;;;;;3.76;100.00;98105.94;6311509;20;2865978;-52
2023/03/10 05:08:51;;;;;;;;;44.00;41.00;;;;;3.94;100.00;98104.84;6316000;20;2853378;-47
2023/03/10 05:11:22;;;;;;;;;52.67;40.33;;;;;4.07;100.00;98103.16;6280156;20;2879502;-45
2023/03/10 05:13:52;;;;;;;;;54.00;42.50;;;;;4.23;100.00;98086.28;6316207;20;2852329;-47
2023/03/10 05:16:22;;;;;;;;;56.67;41.67;;;;;4.26;100.00;98091.41;6285936;20;2870067;-47
2023/03/10 05:18:51;;;;;;;;;53.00;42.50;;;;;4.35;100.00;98090.84;6314388;20;2854571;-47
2023/03/10 05:21:21;;;;;;;;;53.50;43.00;;;;;4.28;100.00;98081.53;6282524;20;2839933;-46
2023/03/10 05:23:50;;;;;;;;;57.00;42.00;;;;;4.30;100.00;98087.63;6282323;20;2826315;-46
2023/03/10 05:26:20;;;;;;;;;69.33;51.33;;;;;4.47;100.00;98091.88;6283270;20;3645107;-47
2023/03/10 05:28:49;;;;;;;;;68.33;52.00;;;;;4.67;100.00;98093.28;6315131;20;3630496;-50
2023/03/10 05:31:24;;;;;;;;;74.67;55.00;;;;;4.65;99.99;98084.56;6314764;20;3640912;-48
2023/03/10 05:33:54;;;;;;;;;82.67;48.00;;;;;4.49;98.92;98088.16;6315230;20;3652350;-45
2023/03/10 05:36:24;;;;;;;;;70.67;51.67;;;;;4.22;97.14;98084.59;6279208;20;2881555;-46
2023/03/10 05:38:52;;;;;;;;;54.50;44.50;;;;;3.91;96.12;98086.44;6312880;20;2847156;-46
2023/03/10 05:41:21;;;;;;;;;47.00;37.50;;;;;3.93;95.96;98089.88;6279427;20;2859702;-47
2023/03/10 05:43:53;;;;;;;;;52.33;38.00;;;;;4.15;94.50;98090.25;6283366;20;2870078;-48
2023/03/10 05:46:22;;;;;;;;;49.50;39.00;;;;;3.97;94.48;98081.59;6310927;20;2863849;-46
2023/03/10 05:48:51;;;;;;;;;59.00;46.50;;;;;4.18;95.30;98082.09;6282957;20;2868995;-47
2023/03/10 05:51:20;;;;;;;;;59.00;48.00;;;;;4.60;93.32;98091.00;6279975;20;2856670;-48
2023/03/10 05:53:49;;;;;;;;;59.00;47.50;;;;;4.57;94.22;98090.34;6280744;20;2859797;-46
2023/03/10 05:56:19;;;;;;;;;58.00;47.50;;;;;5.19;93.67;98081.97;6283695;20;2859767;-48
2023/03/10 05:58:52;;;;;;;;;66.00;51.33;;;;;5.84;91.57;98087.34;6280007;20;2875401;-48
2023/03/10 06:01:21;;;;;;;;;72.67;54.33;;;;;6.71;87.72;98079.56;6313373;20;3642973;-51
2023/03/10 06:03:51;;;;;;;;;73.67;56.67;;;;;7.06;84.97;98079.69;6314514;20;3638212;-47
2023/03/10 06:06:20;;;;;;;;;71.00;54.50;;;;;6.72;85.96;98084.78;6313907;20;2885860;-47
2023/03/10 06:08:50;;;;;;;;;71.00;54.00;;;;;7.00;86.66;98075.66;6312999;20;3618070;-49
2023/03/10 06:11:19;;;;;;;;;74.00;56.33;;;;;8.11;81.47;98091.41;6311968;20;3625322;-48
2023/03/10 06:13:49;;;;;;;;;55.33;42.33;;;;;9.39;73.53;98088.31;6315270;20;2864991;-50
2023/03/10 06:16:19;;;;;;;;;46.00;39.00;;;;;10.00;71.38;98092.22;6313938;20;2855538;-52
2023/03/10 06:18:54;;;;;;;;;56.00;43.00;;;;;12.36;60.40;98092.59;6312507;20;3628534;-52
2023/03/10 06:21:24;;;;;;;;;37.00;34.33;;;;;14.97;51.36;98098.13;6314375;20;3587790;-52
2023/03/10 06:23:53;;;;;;;;;35.67;33.33;;;;;15.89;47.59;98094.56;6281235;20;2857619;-50
2023/03/10 06:26:23;;;;;;;;;37.33;32.33;;;;;15.28;47.99;98090.34;6316078;20;3606509;-45
2023/03/10 06:28:52;;;;;;;;;34.00;30.67;;;;;15.27;48.81;98083.22;6284995;20;2852416;-45
2023/03/10 06:31:23;;;;;;;;;29.33;27.00;;;;;15.08;49.54;98089.72;6315817;20;3605462;-48
2023/03/10 06:33:53;;;;;;;;;29.67;27.67;;;;;16.16;47.12;98093.38;6279749;20;2843021;-50
2023/03/10 06:36:25;;;;;;;;;35.00;29.67;;;;;15.80;46.41;98095.56;6312338;20;3603397;-48
2023/03/10 06:38:55;;;;;;;;;31.00;25.00;;;;;15.99;46.98;98099.81;6280343;20;3619035;-47
2023/03/10 06:41:24;;;;;;;;;23.00;21.00;;;;;14.45;52.49;98098.97;6316611;20;3571120;-47
2023/03/10 06:43:53;;;;;;;;;26.50;24.00;;;;;16.09;49.38;98105.06;6312604;20;2842112;-51
2023/03/10 06:46:24;;;;;;;;;25.33;24.00;;;;;15.57;50.27;98096.16;6283511;20;2848440;-46
2023/03/10 06:48:53;;;;;;;;;23.00;20.50;;;;;16.14;48.41;98102.69;6313748;20;2844059;-49
2023/03/10 06:51:23;;;;;;;;;28.67;26.33;;;;;16.09;48.61;98091.50;6280961;20;3609657;-50
2023/03/10 06:53:53;;;;;;;;;20.00;20.00;;;;;17.29;44.91;98097.91;6313019;20;2835744;-50
2023/03/10 06:56:22;;;;;;;;;27.00;24.00;;;;;16.64;46.80;98094.38;6285539;20;3598282;-48
2023/03/10 06:58:51;;;;;;;;;28.00;28.00;;;;;17.28;45.53;98088.94;6283119;20;3602424;-50
2023/03/10 07:01:31;;;;;;;;;30.33;27.00;;;;;17.75;44.29;98087.19;6285919;20;3608625;-47
2023/03/10 07:04:01;;;;;;;;;30.00;26.33;;;;;15.79;49.47;98083.03;6285900;20;3597210;-49
2023/03/10 07:06:29;;;;;;;;;28.33;25.67;;;;;17.36;46.39;98088.06;6286575;20;3597179;-50
2023/03/10 07:08:59;;;;;;;;;28.00;22.00;;;;;18.70;43.61;98096.78;6284077;20;3608822;-49
2023/03/10 07:11:28;;;;;;;;;29.00;28.33;;;;;17.32;47.23;98095.72;6313586;20;3591941;-48
2023/03/10 07:13:57;;;;;;;;;26.33;22.33;;;;;16.94;47.94;98093.81;6282874;20;3589853;-48
2023/03/10 07:16:26;;;;;;;;;35.00;30.33;;;;;17.18;48.19;98088.31;6283669;20;3585657;-47
2023/03/10 07:18:55;;;;;;;;;30.33;29.33;;;;;19.36;43.51;98091.47;6280382;20;2850344;-48
2023/03/10 07:21:24;;;;;;;;;37.33;32.33;;;;;15.80;50.24;98084.75;6313439;20;3613834;-52
2023/03/10 07:23:52;;;;;;;;;33.67;30.67;;;;;13.88;59.25;98071.53;6285560;20;3585682;-48
2023/03/10 07:26:21;;;;;;;;;38.00;32.00;;;;;12.41;65.55;98073.31;6284426;20;3612895;-45
2023/03/10 07:28:50;;;;;;;;;37.67;32.33;;;;;12.01;69.18;98064.47;6282758;20;3613855;-47
2023/03/10 07:31:20;;;;;;;;;39.00;32.00;;;;;12.32;68.99;98077.72;6278928;20;3604467;-46
2023/03/10 07:33:49;;;;;;;;;37.33;32.33;;;;;12.36;69.82;98071.06;6315855;20;3614880;-45
2023/03/10 07:36:19;;;;;;;;;34.33;29.67;;;;;12.50;67.92;98075.13;6285597;20;3588825;-45
2023/03/10 07:38:49;;;;;;;;;32.33;28.00;;;;;12.65;67.89;98067.44;6282703;20;2859818;-45
2023/03/10 07:41:20;;;;;;;;;30.67;28.67;;;;;13.67;64.35;98072.69;6316545;20;3598183;-46
2023/03/10 07:43:54;;;;;;;;;27.00;26.67;;;;;13.86;64.76;98077.09;6282925;20;2849459;-46
2023/03/10 07:46:23;;;;;;;;;29.67;25.33;;;;;13.34;66.14;98069.66;6318009;20;3601285;-47
2023/03/10 07:48:52;;;;;;;;;28.00;27.00;;;;;14.02;63.73;98069.13;6283185;20;2848243;-48
2023/03/10 07:51:21;;;;;;;;;30.50;30.00;;;;;13.71;64.61;98065.97;6311616;20;3535719;-47
2023/03/10 07:53:50;;;;;;;;;27.67;26.00;;;;;14.47;64.39;98065.41;6315195;20;3602480;-46
2023/03/10 07:56:19;;;;;;;;;22.00;20.00;;;;;13.60;67.40;98071.63;6281697;20;2836776;-50
2023/03/10 07:58:48;;;;;;;;;21.00;18.00;;;;;13.95;67.11;98069.91;6282499;20;2837816;-47
2023/03/10 08:01:20;;;;;;;;;21.50;19.50;;;;;14.17;67.15;98069.41;6280665;20;2814901;-46
2023/03/10 08:03:49;;;;;;;;;26.50;23.50;;;;;14.31;66.96;98067.16;6285067;20;2854567;-46
2023/03/10 08:06:22;;;;;;;;;14.00;13.50;;;;;14.36;65.65;98060.28;6291303;20;2799249;-46
2023/03/10 08:08:53;;;;;;;;;22.00;19.67;;;;;15.01;64.05;98059.81;6289660;20;2840007;-46
2023/03/10 08:11:22;;;;;;;;;22.50;22.00;;;;;14.50;64.87;98058.84;6317359;20;2852356;-48
2023/03/10 08:13:51;;;;;;;;;21.50;20.50;;;;;14.40;66.89;98056.25;6288132;20;2846156;-45
2023/03/10 08:16:22;;;;;;;;;21.00;17.50;;;;;14.74;66.59;98044.66;6288168;20;2834707;-48
2023/03/10 08:18:53;;;;;;;;;21.67;19.67;;;;;14.87;65.42;98049.59;6289071;20;2845117;-46
2023/03/10 08:21:22;;;;;;;;;19.00;15.00;;;;;15.25;64.56;98047.41;6317682;20;3532564;-46
2023/03/10 08:23:51;;;;;;;;;26.67;22.67;;;;;15.08;65.63;98039.22;6287385;20;2844170;-49
2023/03/10 08:26:20;;;;;;;;;22.50;20.00;;;;;14.91;66.09;98040.19;6317207;20;2844071;-49
2023/03/10 08:28:49;;;;;;;;;27.00;24.00;;;;;15.15;67.04;98036.72;6289082;20;3596650;-46
2023/03/10 08:31:20;;;;;;;;;25.33;24.00;;;;;14.74;67.46;98038.41;6289269;20;3583616;-46
2023/03/10 08:33:50;;;;;;;;;27.33;24.33;;;;;14.62;69.57;98046.78;6286587;20;3594040;-46
2023/03/10 08:36:24;;;;;;;;;22.67;21.67;;;;;15.42;67.72;98041.00;6319399;20;3587820;-46
2023/03/10 08:38:55;;;;;;;;;24.00;23.00;;;;;15.27;66.61;98034.53;6283884;20;2858616;-45
2023/03/10 08:41:47;;;;;;;;;32.33;28.33;;;;;15.25;67.30;98032.03;6289708;20;3612824;-45
2023/03/10 08:44:18;;;;;;;;;23.00;22.33;;;;;15.25;68.28;98009.56;6286666;20;2847191;-45
2023/03/10 08:46:49;;;;;;;;;23.00;21.67;;;;;15.27;67.21;98015.63;6317241;20;3578372;-45
2023/03/10 08:49:21;;;;;;;;;25.00;22.00;;;;;15.44;66.37;98017.34;6287172;20;2843064;-46
2023/03/10 08:51:50;;;;;;;;;20.50;20.50;;;;;14.85;68.11;98003.84;6316336;20;2844181;-47
2023/03/10 08:54:20;;;;;;;;;25.50;20.50;;;;;15.32;67.51;97999.75;6286681;20;2843040;-45
2023/03/10 08:56:49;;;;;;;;;24.00;22.50;;;;;15.73;66.69;98007.94;6287066;20;2834699;-47
2023/03/10 08:59:18;;;;;;;;;22.50;19.50;;;;;15.15;67.02;97997.00;6283510;20;2500284;-47
2023/03/10 09:01:46;;;;;;;;;20.00;20.00;;;;;15.29;67.88;98000.06;6285168;20;2829443;-48
2023/03/10 09:04:15;;;;;;;;;22.50;19.00;;;;;15.92;65.56;98002.19;6287747;20;2846112;-45
2023/03/10 09:06:44;;;;;;;;;23.00;18.50;;;;;16.69;62.97;98001.69;6287814;20;2831596;-46
2023/03/10 09:09:13;;;;;;;;;20.00;17.50;;;;;16.11;63.66;98000.13;6286123;20;2483644;-47
2023/03/10 09:11:42;;;;;;;;;22.00;21.00;;;;;15.87;64.17;97993.72;6284811;20;2833771;-45
2023/03/10 09:14:11;;;;;;;;;17.50;16.00;;;;;16.12;64.60;97991.03;6284173;20;2485740;-46
2023/03/10 09:16:44;;;;;;;;;23.00;21.67;;;;;16.50;63.86;97988.56;6290619;20;3567990;-45
2023/03/10 09:19:13;;;;;;;;;30.00;23.33;;;;;16.83;61.67;97990.16;6285962;20;3596082;-48
2023/03/10 09:21:42;;;;;;;;;29.67;24.00;;;;;17.10;60.90;97979.88;6318283;20;3595124;-46
2023/03/10 09:24:11;;;;;;;;;28.00;26.00;;;;;17.31;59.90;97982.78;6285440;20;3613949;-45
2023/03/10 09:26:39;;;;;;;;;24.33;21.33;;;;;16.35;64.49;97986.56;6287918;20;3583625;-45
2023/03/10 09:29:15;;;;;;;;;22.67;21.33;;;;;16.69;65.19;97977.31;6287634;20;3578466;-44
2023/03/10 09:31:46;;;;;;;;;27.33;22.00;;;;;16.40;65.16;97973.38;6283642;20;2850271;-45
2023/03/10 09:34:15;;;;;;;;;22.67;22.67;;;;;16.68;64.74;97981.03;6318908;20;3581536;-51
2023/03/10 09:36:44;;;;;;;;;22.00;22.00;;;;;16.69;64.95;97977.31;6287656;20;3584752;-45
2023/03/10 09:39:13;;;;;;;;;20.67;18.33;;;;;16.65;63.91;97976.81;6285209;20;3566928;-47
2023/03/10 09:42:13;;;;;;;;;12.33;12.00;;;;;16.43;64.35;97974.88;6283545;20;3525291;-47
2023/03/10 09:45:16;;;;;;;;;20.00;19.00;;;;;15.98;65.21;97976.28;6319513;20;3577402;-50
2023/03/10 09:48:00;;;;;;;;;22.00;19.00;;;;;15.91;65.78;97972.59;6287425;20;3575301;-48
2023/03/10 09:50:49;;;;;;;;;25.33;19.67;;;;;16.35;64.54;97964.03;6317701;20;3581569;-45
2023/03/10 09:54:39;;;;;;;;;17.00;14.00;;;;;16.56;63.75;97966.19;6288763;20;2801411;-46
2023/03/10 09:57:20;;;;;;;;;14.67;14.67;;;;;17.71;59.82;97959.09;6285637;20;3531548;-46
2023/03/10 09:59:56;;;;;;;;;15.33;12.33;;;;;17.57;58.50;97953.63;6283091;20;3534814;-50
2023/03/10 10:02:40;;;;;;;;;11.50;11.00;;;;;17.89;57.58;97941.66;6318454;20;2804451;-46
2023/03/10 10:05:23;;;;;;;;;15.00;12.00;;;;;18.55;54.95;97939.94;6289648;20;2787787;-48
2023/03/10 10:07:56;;;;;;;;;14.00;10.67;;;;;17.86;57.63;97936.63;6284923;20;3512858;-48
2023/03/10 10:10:36;;;;;;;;;7.20;7.20;;;;;17.57;57.88;97924.63;6343010;20;2746159;-48
2023/03/10 10:13:28;;;;;;;;;11.00;10.67;;;;;17.55;58.83;97918.50;6313655;20;3511732;-46
2023/03/10 10:16:45;;;;;;;;;11.00;10.00;;;;;16.96;58.93;97912.84;6315469;20;2790952;-46
2023/03/10 10:19:25;;;;;;;;;6.80;6.80;;;;;17.30;58.69;97915.16;6336455;20;2741982;-48
2023/03/10 10:22:33;;;;;;;;;5.00;4.50;;;;;17.27;57.72;97915.50;6316467;20;2748227;-45
2023/03/10 10:25:07;;;;;;;;;1.25;1.00;;;;;16.71;58.29;97902.09;6300328;20;1800477;-50
2023/03/10 10:27:40;;;;;;;;;3.00;3.00;;;;;16.95;57.88;97903.00;6341986;20;2737805;-49
2023/03/10 10:30:41;;;;;;;;;4.50;4.50;;;;;16.99;57.93;97893.50;6317957;20;2756571;-48
2023/03/10 10:33:14;;;;;;;;;4.00;4.00;;;;;16.92;57.95;97889.81;6290601;20;2737784;-47
2023/03/10 10:36:00;;;;;;;;;2.00;2.00;;;;;17.77;56.33;97881.50;6288349;20;2744165;-48
2023/03/10 10:38:31;;;;;;;;;4.00;3.00;;;;;17.55;56.07;97875.09;6290379;20;2731539;-47
2023/03/10 10:41:15;;;;;;;;;4.00;4.00;;;;;18.18;54.59;97876.50;6315289;20;2744070;-47
2023/03/10 10:43:45;;;;;;;;;4.33;3.00;;;;;18.15;54.85;97866.03;6320111;20;2741004;-45
2023/03/10 10:46:28;;;;;;;;;2.67;2.67;;;;;18.35;54.34;97866.31;6320288;20;2739873;-48
2023/03/10 10:49:23;;;;;;;;;3.00;2.00;;;;;18.11;55.00;97863.88;6320346;20;2734664;-45
2023/03/10 10:52:23;;;;;;;;;3.00;3.00;;;;;17.90;55.59;97851.03;6292754;20;2749331;-45
2023/03/10 10:54:58;;;;;;;;;3.00;3.00;;;;;17.95;55.09;97848.59;6289875;20;2741984;-49
2023/03/10 10:57:33;;;;;;;;;2.50;2.50;;;;;18.49;54.15;97850.19;6288837;20;2734762;-46
2023/03/10 11:00:39;;;;;;;;;4.00;3.00;;;;;18.36;54.75;97839.97;6290150;20;2748331;-47
2023/03/10 11:03:33;;;;;;;;;3.00;3.00;;;;;18.82;53.37;97834.25;6286186;20;2735818;-47
2023/03/10 11:06:28;;;;;;;;;3.00;3.00;;;;;18.91;52.89;97838.56;6312413;20;2748689;-48
2023/03/10 11:09:20;;;;;;;;;4.40;2.00;;;;;18.51;52.93;97831.78;6339667;20;2754623;-47
2023/03/10 11:12:24;;;;;;;;;3.00;3.00;;;;;19.06;51.92;97817.59;6281283;20;2744088;-44
2023/03/10 11:15:07;;;;;;;;;2.00;2.00;;;;;19.00;50.97;97809.34;6318204;20;2748221;-45
2023/03/10 11:17:46;;;;;;;;;3.33;2.00;;;;;18.47;52.33;97814.19;6320702;20;2748187;-46
2023/03/10 11:20:56;;;;;;;;;1.00;1.00;;;;;18.49;52.40;97802.09;6316440;20;2735724;-45
2023/03/10 11:24:15;;;;;;;;;3.33;1.33;;;;;18.41;52.77;97792.19;6318575;20;2734769;-46
2023/03/10 11:27:23;;;;;;;;;1.67;1.67;;;;;19.27;51.40;97786.81;6317019;20;2751334;-45
2023/03/10 11:30:29;;;;;;;;;1.67;1.67;;;;;19.08;51.30;97787.47;6314814;20;2737782;-46
2023/03/10 11:33:09;;;;;;;;;4.00;1.00;;;;;18.68;52.01;97783.47;6317993;20;2728419;-46
2023/03/10 11:35:48;;;;;;;;;3.00;3.00;;;;;18.86;50.43;97775.75;6316194;20;2736734;-45
2023/03/10 11:38:43;;;;;;;;;2.00;2.00;;;;;18.77;49.87;97776.91;6312687;20;2729836;-45